Time;durP1;ratioP1;P1;durP2;ratioP2;P2;SDS_P1;SDS_P2;PMS_P1;PMS_P2;Temp;Humidity;BMP_temperature;BMP_pressure;BME280_temperature;BME280_humidity;BME280_pressure;Samples;Min_cycle;Max_cycle;Signal;HPM_P1;HPM_P2
2023/12/07 00:01:52;;;;;;;20.58;10.95;;;;;;;;;;7369116;19;20006;-74
2023/12/07 00:04:17;;;;;;;25.25;11.63;;;;;;;;;;7367660;19;20532;-73
2023/12/07 00:06:42;;;;;;;20.92;10.35;;;;;;;;;;7367078;19;20058;-74
2023/12/07 00:09:07;;;;;;;17.77;10.35;;;;;;;;;;7387972;19;20002;-74
2023/12/07 00:11:33;;;;;;;19.33;10.88;;;;;;;;;;7365755;19;20082;-74
2023/12/07 00:13:58;;;;;;;24.65;12.25;;;;;;;;;;7363846;19;20502;-74
2023/12/07 00:16:23;;;;;;;19.42;11.00;;;;;;;;;;7361502;19;20017;-74
2023/12/07 00:18:49;;;;;;;23.02;11.40;;;;;;;;;;7364791;19;20003;-74
2023/12/07 00:21:14;;;;;;;20.92;11.73;;;;;;;;;;7385483;19;20418;-73
2023/12/07 00:23:40;;;;;;;22.92;12.63;;;;;;;;;;7362440;19;20015;-74
2023/12/07 00:26:05;;;;;;;22.65;11.43;;;;;;;;;;7363513;19;20476;-74
2023/12/07 00:28:30;;;;;;;23.17;11.93;;;;;;;;;;7365350;19;20462;-73
2023/12/07 00:30:56;;;;;;;21.90;11.13;;;;;;;;;;7366989;19;20020;-74
2023/12/07 00:33:22;;;;;;;19.58;11.77;;;;;;;;;;7386203;19;20009;-74
2023/12/07 00:35:47;;;;;;;26.70;11.82;;;;;;;;;;7363732;19;20757;-74
2023/12/07 00:38:13;;;;;;;21.33;11.60;;;;;;;;;;7363752;19;20030;-74
2023/12/07 00:40:39;;;;;;;22.67;12.30;;;;;;;;;;7362830;19;20011;-74
2023/12/07 00:43:05;;;;;;;26.10;11.82;;;;;;;;;;7367889;19;20011;-73
2023/12/07 00:45:30;;;;;;;22.35;12.68;;;;;;;;;;7392433;19;20036;-73
2023/12/07 00:47:56;;;;;;;30.05;12.45;;;;;;;;;;7370629;19;20075;-74
2023/12/07 00:50:21;;;;;;;24.30;11.93;;;;;;;;;;7370714;19;20010;-73
2023/12/07 00:52:47;;;;;;;23.27;12.23;;;;;;;;;;7369993;19;20073;-73
2023/12/07 00:55:12;;;;;;;22.05;11.55;;;;;;;;;;7369510;19;20125;-74
2023/12/07 00:57:37;;;;;;;22.17;11.48;;;;;;;;;;7391418;19;20010;-73
2023/12/07 01:00:04;;;;;;;25.27;13.23;;;;;;;;;;7371070;19;20007;-74
2023/12/07 01:02:29;;;;;;;22.88;12.23;;;;;;;;;;7369361;19;20011;-73
2023/12/07 01:04:54;;;;;;;22.98;11.93;;;;;;;;;;7371544;19;20034;-74
2023/12/07 01:07:20;;;;;;;22.00;11.60;;;;;;;;;;7370615;19;20017;-74
2023/12/07 01:09:46;;;;;;;22.83;11.75;;;;;;;;;;7370617;19;20066;-73
2023/12/07 01:12:11;;;;;;;22.77;10.93;;;;;;;;;;7391752;19;20019;-73
2023/12/07 01:14:37;;;;;;;23.63;11.25;;;;;;;;;;7369551;19;20017;-73
2023/12/07 01:17:03;;;;;;;24.27;11.35;;;;;;;;;;7368096;19;20010;-74
2023/12/07 01:19:28;;;;;;;19.45;10.80;;;;;;;;;;7370386;19;20023;-73
2023/12/07 01:21:54;;;;;;;24.02;11.80;;;;;;;;;;7369544;19;20014;-74
2023/12/07 01:24:19;;;;;;;19.60;11.00;;;;;;;;;;7388194;19;20014;-74
2023/12/07 01:26:44;;;;;;;21.92;11.82;;;;;;;;;;7367212;19;20478;-73
2023/12/07 01:29:10;;;;;;;22.40;12.27;;;;;;;;;;7368272;19;20007;-73
2023/12/07 01:31:35;;;;;;;26.50;13.45;;;;;;;;;;7369426;19;20014;-73
2023/12/07 01:34:00;;;;;;;28.85;13.77;;;;;;;;;;7364744;19;20006;-74
2023/12/07 01:36:26;;;;;;;24.77;14.15;;;;;;;;;;7386385;19;20123;-74
2023/12/07 01:38:51;;;;;;;29.00;14.38;;;;;;;;;;7365362;19;20026;-73
2023/12/07 01:41:18;;;;;;;32.75;14.52;;;;;;;;;;7366887;19;20542;-74
2023/12/07 01:43:46;;;;;;;29.63;14.27;;;;;;;;;;7365821;19;20006;-74
2023/12/07 01:46:13;;;;;;;28.27;13.88;;;;;;;;;;7365492;19;20168;-73
2023/12/07 01:48:38;;;;;;;28.67;14.60;;;;;;;;;;7389440;19;19999;-74
2023/12/07 01:51:04;;;;;;;27.90;12.93;;;;;;;;;;7368295;19;20578;-73
2023/12/07 01:53:29;;;;;;;35.00;14.45;;;;;;;;;;7363748;19;20007;-74
2023/12/07 01:55:55;;;;;;;31.80;13.50;;;;;;;;;;7368095;19;20033;-73
2023/12/07 01:58:21;;;;;;;25.20;13.00;;;;;;;;;;7366678;19;20007;-73
2023/12/07 02:00:47;;;;;;;27.33;12.93;;;;;;;;;;7369016;19;19999;-74
2023/12/07 02:03:13;;;;;;;31.08;15.35;;;;;;;;;;7388259;19;20499;-74
2023/12/07 02:05:43;;;;;;;29.55;14.23;;;;;;;;;;7367720;19;20042;-74
2023/12/07 02:08:08;;;;;;;26.70;13.55;;;;;;;;;;7369752;19;20017;-74
2023/12/07 02:10:34;;;;;;;28.27;13.75;;;;;;;;;;7368408;19;20082;-74
2023/12/07 02:12:59;;;;;;;26.15;13.07;;;;;;;;;;7367640;19;20068;-74
2023/12/07 02:15:25;;;;;;;24.52;12.15;;;;;;;;;;7389760;19;20058;-73
2023/12/07 02:18:06;;;;;;;27.92;13.05;;;;;;;;;;7366715;19;20069;-74
2023/12/07 02:20:37;;;;;;;;;;;;;;;;;;7368694;19;20006;-74
2023/12/07 02:23:06;;;;;;;24.65;11.15;;;;;;;;;;7367857;19;19919;-75
2023/12/07 02:25:48;;;;;;;24.70;11.65;;;;;;;;;;7370961;19;20417;-74
2023/12/07 02:28:13;;;;;;;25.35;13.20;;;;;;;;;;7371135;19;20026;-74
2023/12/07 02:30:38;;;;;;;27.23;13.10;;;;;;;;;;7391361;19;20538;-74
2023/12/07 02:33:04;;;;;;;26.40;11.93;;;;;;;;;;7366389;19;20011;-74
2023/12/07 02:35:30;;;;;;;31.20;14.30;;;;;;;;;;7365488;19;20074;-74
2023/12/07 02:37:56;;;;;;;29.67;14.30;;;;;;;;;;7367297;19;20396;-74
2023/12/07 02:40:24;;;;;;;27.05;12.98;;;;;;;;;;7370803;19;20010;-74
2023/12/07 02:42:52;;;;;;;32.75;13.23;;;;;;;;;;7369034;19;20023;-74
2023/12/07 02:45:17;;;;;;;31.50;13.90;;;;;;;;;;7389800;19;20006;-74
2023/12/07 02:47:43;;;;;;;34.45;15.68;;;;;;;;;;7367481;19;20003;-74
2023/12/07 02:50:09;;;;;;;27.58;14.30;;;;;;;;;;7367717;19;20003;-74
2023/12/07 02:52:35;;;;;;;32.90;14.55;;;;;;;;;;7365833;19;20057;-74
2023/12/07 02:55:00;;;;;;;32.05;14.20;;;;;;;;;;7365785;19;20127;-74
2023/12/07 02:57:25;;;;;;;28.60;13.50;;;;;;;;;;7386547;19;20010;-74
2023/12/07 02:59:51;;;;;;;33.78;13.13;;;;;;;;;;7365574;19;20006;-74
2023/12/07 03:02:16;;;;;;;31.02;13.05;;;;;;;;;;7365893;19;20074;-74
2023/12/07 03:04:41;;;;;;;25.10;12.20;;;;;;;;;;7365194;19;20019;-74
2023/12/07 03:07:07;;;;;;;26.60;12.90;;;;;;;;;;7365834;19;20077;-74
2023/12/07 03:09:32;;;;;;;26.02;13.07;;;;;;;;;;7387911;19;20807;-74
2023/12/07 03:11:58;;;;;;;29.65;13.00;;;;;;;;;;7365675;19;20003;-74
2023/12/07 03:14:23;;;;;;;24.70;12.27;;;;;;;;;;7366621;19;20470;-74
2023/12/07 03:16:48;;;;;;;26.58;11.88;;;;;;;;;;7364507;19;20722;-74
2023/12/07 03:19:14;;;;;;;26.35;12.75;;;;;;;;;;7366439;19;20002;-74
2023/12/07 03:21:45;;;;;;;32.65;13.48;;;;;;;;;;7389109;19;20045;-74
2023/12/07 03:24:10;;;;;;;;;;;;;;;;;;7364978;19;20002;-74
2023/12/07 03:26:38;;;;;;;30.33;12.32;;;;;;;;;;7363953;19;19931;-74
2023/12/07 03:29:04;;;;;;;27.92;13.15;;;;;;;;;;7365145;19;20580;-74
2023/12/07 03:31:30;;;;;;;35.60;14.10;;;;;;;;;;7364902;19;20007;-74
2023/12/07 03:33:56;;;;;;;37.30;14.63;;;;;;;;;;7362610;19;20459;-74
2023/12/07 03:36:21;;;;;;;30.23;13.55;;;;;;;;;;7383201;19;20396;-74
2023/12/07 03:38:47;;;;;;;28.00;13.15;;;;;;;;;;7361953;19;20017;-74
2023/12/07 03:41:13;;;;;;;25.63;13.15;;;;;;;;;;7362441;19;20014;-74
2023/12/07 03:43:38;;;;;;;30.35;14.48;;;;;;;;;;7361501;19;20637;-74
2023/12/07 03:46:04;;;;;;;42.47;17.67;;;;;;;;;;7360829;19;20014;-74
2023/12/07 03:48:30;;;;;;;35.78;15.85;;;;;;;;;;7382765;19;20010;-74
2023/12/07 03:50:55;;;;;;;31.83;15.32;;;;;;;;;;7365257;19;20011;-74
2023/12/07 03:53:20;;;;;;;31.15;14.35;;;;;;;;;;7362507;19;20089;-74
2023/12/07 03:55:46;;;;;;;26.77;13.15;;;;;;;;;;7363591;19;20018;-74
2023/12/07 03:58:13;;;;;;;31.58;14.90;;;;;;;;;;7364994;19;20049;-73
2023/12/07 04:00:38;;;;;;;32.95;15.13;;;;;;;;;;7387888;19;20067;-74
2023/12/07 04:03:04;;;;;;;31.88;14.25;;;;;;;;;;7364507;19;20437;-74
2023/12/07 04:05:29;;;;;;;29.27;13.45;;;;;;;;;;7366081;19;20014;-74
2023/12/07 04:07:54;;;;;;;32.53;15.05;;;;;;;;;;7367583;19;20028;-74
2023/12/07 04:10:20;;;;;;;33.50;14.43;;;;;;;;;;7366119;19;20073;-74
2023/12/07 04:12:45;;;;;;;29.60;13.38;;;;;;;;;;7364818;19;20006;-74
2023/12/07 04:15:10;;;;;;;27.20;12.27;;;;;;;;;;7388687;19;20052;-75
2023/12/07 04:17:36;;;;;;;30.02;14.30;;;;;;;;;;7367492;19;20034;-73
2023/12/07 04:20:01;;;;;;;34.50;15.02;;;;;;;;;;7373158;19;20077;-74
2023/12/07 04:22:26;;;;;;;35.25;15.90;;;;;;;;;;7373653;19;20072;-73
2023/12/07 04:24:52;;;;;;;29.23;14.95;;;;;;;;;;7369415;19;20362;-73
2023/12/07 04:27:17;;;;;;;33.28;16.20;;;;;;;;;;7392766;19;20428;-73
2023/12/07 04:29:42;;;;;;;31.00;15.00;;;;;;;;;;7371072;19;20010;-73
2023/12/07 04:32:08;;;;;;;31.38;15.68;;;;;;;;;;7371654;19;20019;-74
2023/12/07 04:34:34;;;;;;;32.05;15.45;;;;;;;;;;7370726;19;20126;-74
2023/12/07 04:36:59;;;;;;;28.83;14.40;;;;;;;;;;7376584;19;20005;-74
2023/12/07 04:39:24;;;;;;;36.47;15.30;;;;;;;;;;7399923;19;20146;-74
2023/12/07 04:41:50;;;;;;;31.98;14.50;;;;;;;;;;7377311;19;20039;-73
2023/12/07 04:44:16;;;;;;;34.83;15.30;;;;;;;;;;7377805;19;20031;-73
2023/12/07 04:46:42;;;;;;;31.88;14.98;;;;;;;;;;7377976;19;20139;-73
2023/12/07 04:49:07;;;;;;;35.38;15.90;;;;;;;;;;7377670;19;20010;-73
2023/12/07 04:51:33;;;;;;;32.60;15.90;;;;;;;;;;7393645;19;20074;-74
2023/12/07 04:53:58;;;;;;;34.53;15.90;;;;;;;;;;7368702;19;20003;-74
2023/12/07 04:56:23;;;;;;;34.47;15.38;;;;;;;;;;7370196;19;20105;-73
2023/12/07 04:58:49;;;;;;;33.70;15.43;;;;;;;;;;7370292;19;19998;-74
2023/12/07 05:01:14;;;;;;;30.08;14.80;;;;;;;;;;7366015;19;20472;-74
2023/12/07 05:03:39;;;;;;;33.92;15.30;;;;;;;;;;7390109;19;19998;-74
2023/12/07 05:06:05;;;;;;;30.02;14.85;;;;;;;;;;7369061;19;20007;-74
2023/12/07 05:08:31;;;;;;;37.50;16.70;;;;;;;;;;7369670;19;19999;-74
2023/12/07 05:10:57;;;;;;;36.78;16.15;;;;;;;;;;7371123;19;19994;-74
2023/12/07 05:13:23;;;;;;;30.17;15.18;;;;;;;;;;7370751;19;20025;-74
2023/12/07 05:15:48;;;;;;;36.60;16.20;;;;;;;;;;7369700;19;20015;-72
2023/12/07 05:18:13;;;;;;;43.75;16.88;;;;;;;;;;7391132;19;20006;-73
2023/12/07 05:20:39;;;;;;;40.08;16.08;;;;;;;;;;7368232;19;20017;-73
2023/12/07 05:23:05;;;;;;;40.88;16.75;;;;;;;;;;7367950;19;20007;-73
2023/12/07 05:25:30;;;;;;;44.35;17.27;;;;;;;;;;7368634;19;20041;-73
2023/12/07 05:27:55;;;;;;;37.25;16.67;;;;;;;;;;7369566;19;20437;-73
2023/12/07 05:30:21;;;;;;;45.13;17.17;;;;;;;;;;7390350;19;20002;-73
2023/12/07 05:32:50;;;;;;;37.63;16.70;;;;;;;;;;7367714;19;20011;-74
2023/12/07 05:35:15;;;;;;;35.70;15.95;;;;;;;;;;7368018;19;20106;-72
2023/12/07 05:37:41;;;;;;;45.90;17.15;;;;;;;;;;7370551;19;20372;-74
2023/12/07 05:40:07;;;;;;;45.63;17.75;;;;;;;;;;7371872;19;20361;-74
2023/12/07 05:42:33;;;;;;;37.17;18.25;;;;;;;;;;7394306;19;20015;-75
2023/12/07 05:44:59;;;;;;;40.22;17.15;;;;;;;;;;7371794;19;20075;-74
2023/12/07 05:47:24;;;;;;;38.58;16.50;;;;;;;;;;7370507;19;20074;-75
2023/12/07 05:49:50;;;;;;;37.42;16.10;;;;;;;;;;7375813;19;20011;-77
2023/12/07 05:52:15;;;;;;;28.48;13.85;;;;;;;;;;7375604;19;20002;-77
2023/12/07 05:54:45;;;;;;;34.47;14.68;;;;;;;;;;7393176;19;20023;-77
2023/12/07 05:57:10;;;;;;;29.13;14.80;;;;;;;;;;7388023;19;20007;-75
2023/12/07 05:59:39;;;;;;;29.65;13.95;;;;;;;;;;7366854;19;19998;-75
2023/12/07 06:02:04;;;;;;;31.50;14.18;;;;;;;;;;7367440;19;20450;-75
2023/12/07 06:04:30;;;;;;;28.90;14.75;;;;;;;;;;7352620;19;20070;-67
2023/12/07 06:06:56;;;;;;;30.80;16.15;;;;;;;;;;7362598;19;20006;-74
2023/12/07 06:09:21;;;;;;;32.40;15.68;;;;;;;;;;7387409;19;20102;-75
2023/12/07 06:11:47;;;;;;;33.08;16.35;;;;;;;;;;7366468;19;20003;-76
2023/12/07 06:14:13;;;;;;;33.35;15.63;;;;;;;;;;7364277;19;20676;-75
2023/12/07 06:16:38;;;;;;;33.08;15.95;;;;;;;;;;7367131;19;20448;-75
2023/12/07 06:19:04;;;;;;;44.97;19.58;;;;;;;;;;7365089;19;20023;-76
2023/12/07 06:21:30;;;;;;;77.72;36.35;;;;;;;;;;7388351;19;20010;-75
2023/12/07 06:23:55;;;;;;;66.82;30.45;;;;;;;;;;7359848;19;20031;-75
2023/12/07 06:26:21;;;;;;;69.03;29.38;;;;;;;;;;7366745;19;20442;-75
2023/12/07 06:28:47;;;;;;;57.45;28.73;;;;;;;;;;7366742;19;20322;-76
2023/12/07 06:31:12;;;;;;;53.83;26.25;;;;;;;;;;7366254;19;20009;-76
2023/12/07 06:33:37;;;;;;;41.67;19.88;;;;;;;;;;7390601;19;20006;-76
2023/12/07 06:36:04;;;;;;;41.03;19.52;;;;;;;;;;7367767;19;20037;-76
2023/12/07 06:38:29;;;;;;;38.08;18.65;;;;;;;;;;7367157;19;20368;-75
2023/12/07 06:40:56;;;;;;;40.95;17.83;;;;;;;;;;7368261;19;20030;-76
2023/12/07 06:43:22;;;;;;;40.13;17.30;;;;;;;;;;7368960;19;20002;-75
2023/12/07 06:45:47;;;;;;;39.10;16.55;;;;;;;;;;7367133;19;20465;-75
2023/12/07 06:48:13;;;;;;;46.08;17.67;;;;;;;;;;7388696;19;19998;-75
2023/12/07 06:50:39;;;;;;;45.42;17.95;;;;;;;;;;7366123;19;19998;-75
2023/12/07 06:53:04;;;;;;;35.90;16.17;;;;;;;;;;7355154;19;20007;-75
2023/12/07 06:55:30;;;;;;;44.50;16.98;;;;;;;;;;7363591;19;20002;-75
2023/12/07 06:57:55;;;;;;;45.35;17.17;;;;;;;;;;7364319;19;20449;-74
2023/12/07 07:00:21;;;;;;;34.03;16.73;;;;;;;;;;7387702;19;20618;-75
2023/12/07 07:02:46;;;;;;;37.13;15.60;;;;;;;;;;7363267;19;20078;-75
2023/12/07 07:05:12;;;;;;;38.17;16.00;;;;;;;;;;7366942;19;20030;-75
2023/12/07 07:07:38;;;;;;;37.95;16.80;;;;;;;;;;7373735;19;20058;-75
2023/12/07 07:10:03;;;;;;;43.80;17.08;;;;;;;;;;7369133;19;20022;-75
2023/12/07 07:12:29;;;;;;;50.10;18.63;;;;;;;;;;7387642;19;20461;-74
2023/12/07 07:14:55;;;;;;;58.28;19.73;;;;;;;;;;7368117;19;20413;-76
2023/12/07 07:17:20;;;;;;;64.45;20.40;;;;;;;;;;7365820;19;20418;-76
2023/12/07 07:19:45;;;;;;;58.60;21.48;;;;;;;;;;7357771;19;19999;-76
2023/12/07 07:22:11;;;;;;;54.15;19.17;;;;;;;;;;7368755;19;19998;-75
2023/12/07 07:24:36;;;;;;;58.17;19.38;;;;;;;;;;7389579;19;20369;-75
2023/12/07 07:27:02;;;;;;;49.22;18.67;;;;;;;;;;7366407;19;20874;-75
2023/12/07 07:29:28;;;;;;;45.28;18.42;;;;;;;;;;7367865;19;19998;-76
2023/12/07 07:31:53;;;;;;;46.67;18.65;;;;;;;;;;7366907;19;20002;-76
2023/12/07 07:34:18;;;;;;;49.53;19.23;;;;;;;;;;7364601;19;20002;-76
2023/12/07 07:36:44;;;;;;;44.42;17.98;;;;;;;;;;7365785;19;20338;-76
2023/12/07 07:39:09;;;;;;;48.15;19.70;;;;;;;;;;7390956;19;20420;-75
2023/12/07 07:41:36;;;;;;;46.63;19.13;;;;;;;;;;7378958;19;20002;-75
2023/12/07 07:44:02;;;;;;;36.88;18.55;;;;;;;;;;7376952;19;19994;-75
2023/12/07 07:46:27;;;;;;;40.85;18.40;;;;;;;;;;7379378;19;20014;-75
2023/12/07 07:48:52;;;;;;;47.65;18.55;;;;;;;;;;7377792;19;20002;-75
2023/12/07 07:51:18;;;;;;;37.13;17.95;;;;;;;;;;7394818;19;20002;-76
2023/12/07 07:53:43;;;;;;;39.58;17.83;;;;;;;;;;7373852;19;20014;-76
2023/12/07 07:56:09;;;;;;;36.55;16.50;;;;;;;;;;7375093;19;20036;-76
2023/12/07 07:58:34;;;;;;;46.33;17.15;;;;;;;;;;7374117;19;20002;-75
2023/12/07 08:01:00;;;;;;;43.10;18.35;;;;;;;;;;7368466;19;20039;-76
2023/12/07 08:03:25;;;;;;;83.07;18.00;;;;;;;;;;7386270;19;20005;-75
2023/12/07 08:05:50;;;;;;;71.40;16.63;;;;;;;;;;7363714;19;20010;-76
2023/12/07 08:08:16;;;;;;;65.88;18.20;;;;;;;;;;7365444;19;20066;-76
2023/12/07 08:10:41;;;;;;;58.85;17.27;;;;;;;;;;7365436;19;20477;-75
2023/12/07 08:13:07;;;;;;;104.40;17.13;;;;;;;;;;7363532;19;20037;-75
2023/12/07 08:15:33;;;;;;;61.90;16.33;;;;;;;;;;7385665;19;20086;-76
2023/12/07 08:17:58;;;;;;;78.45;15.80;;;;;;;;;;7364488;19;20014;-76
2023/12/07 08:20:24;;;;;;;63.20;15.50;;;;;;;;;;7364497;19;20002;-75
2023/12/07 08:22:50;;;;;;;73.15;17.48;;;;;;;;;;7364542;19;20595;-76
2023/12/07 08:25:17;;;;;;;45.95;13.85;;;;;;;;;;7363561;19;20032;-76
2023/12/07 08:27:44;;;;;;;51.00;14.75;;;;;;;;;;7372822;19;20006;-75
2023/12/07 08:30:10;;;;;;;57.47;15.85;;;;;;;;;;7396903;19;20002;-76
2023/12/07 08:32:36;;;;;;;41.85;15.27;;;;;;;;;;7367402;19;19999;-77
2023/12/07 08:35:02;;;;;;;45.10;15.35;;;;;;;;;;7363456;19;20007;-76
2023/12/07 08:37:28;;;;;;;37.38;15.27;;;;;;;;;;7361881;19;20039;-76
2023/12/07 08:39:54;;;;;;;55.30;16.90;;;;;;;;;;7363010;19;20081;-76
2023/12/07 08:42:19;;;;;;;49.10;17.65;;;;;;;;;;7385684;19;20015;-76
2023/12/07 08:44:44;;;;;;;51.35;16.42;;;;;;;;;;7363702;19;20002;-76
2023/12/07 08:47:10;;;;;;;53.75;16.85;;;;;;;;;;7367742;19;20010;-77
2023/12/07 08:49:36;;;;;;;60.75;17.35;;;;;;;;;;7375142;19;20003;-76
2023/12/07 08:52:03;;;;;;;48.25;16.65;;;;;;;;;;7371079;19;20018;-76
2023/12/07 08:54:28;;;;;;;42.90;15.68;;;;;;;;;;7392021;19;20525;-76
2023/12/07 08:56:53;;;;;;;48.28;17.38;;;;;;;;;;7368722;19;20011;-75
2023/12/07 08:59:19;;;;;;;49.15;16.83;;;;;;;;;;7371448;19;20007;-76
2023/12/07 09:01:44;;;;;;;44.88;17.27;;;;;;;;;;7371542;19;20006;-75
2023/12/07 09:04:09;;;;;;;45.13;16.52;;;;;;;;;;7373251;19;20077;-75
2023/12/07 09:06:36;;;;;;;43.40;17.33;;;;;;;;;;7392445;19;20014;-76
2023/12/07 09:09:04;;;;;;;37.30;15.02;;;;;;;;;;7374500;19;20002;-76
2023/12/07 09:11:30;;;;;;;49.38;18.90;;;;;;;;;;7378460;19;20010;-76
2023/12/07 09:13:55;;;;;;;42.45;18.55;;;;;;;;;;7375340;19;20003;-75
2023/12/07 09:16:21;;;;;;;37.03;17.80;;;;;;;;;;7372716;19;20099;-77
2023/12/07 09:18:46;;;;;;;46.67;17.98;;;;;;;;;;7369328;19;20037;-77
2023/12/07 09:21:12;;;;;;;45.28;18.63;;;;;;;;;;7393137;19;20006;-74
2023/12/07 09:23:37;;;;;;;54.85;19.83;;;;;;;;;;7369285;19;20356;-75
2023/12/07 09:26:03;;;;;;;47.90;21.05;;;;;;;;;;7372039;19;20149;-76
2023/12/07 09:28:29;;;;;;;60.67;22.05;;;;;;;;;;7374658;19;19998;-77
2023/12/07 09:30:54;;;;;;;54.92;22.38;;;;;;;;;;7377964;19;20006;-75
2023/12/07 09:33:19;;;;;;;64.90;22.67;;;;;;;;;;7402892;19;20007;-75
2023/12/07 09:35:45;;;;;;;53.83;22.92;;;;;;;;;;7378982;19;20006;-76
2023/12/07 09:38:10;;;;;;;55.60;21.67;;;;;;;;;;7368362;19;20006;-76
2023/12/07 09:40:35;;;;;;;49.60;21.20;;;;;;;;;;7370063;19;20034;-76
2023/12/07 09:43:01;;;;;;;56.72;21.85;;;;;;;;;;7369918;19;20019;-77
2023/12/07 09:45:26;;;;;;;48.55;21.30;;;;;;;;;;7390895;19;20479;-76
2023/12/07 09:47:54;;;;;;;51.67;21.30;;;;;;;;;;7371457;19;20464;-75
2023/12/07 09:50:23;;;;;;;47.13;20.50;;;;;;;;;;7381284;19;20224;-75
2023/12/07 09:52:50;;;;;;;48.55;20.67;;;;;;;;;;7379154;19;20078;-76
2023/12/07 09:55:17;;;;;;;42.75;20.23;;;;;;;;;;7377528;19;20013;-76
2023/12/07 09:57:43;;;;;;;48.40;20.73;;;;;;;;;;7376104;19;20098;-77
2023/12/07 10:00:13;;;;;;;45.70;20.75;;;;;;;;;;7386716;19;19998;-75
2023/12/07 10:02:41;;;;;;;43.58;18.65;;;;;;;;;;7368076;19;20017;-76
2023/12/07 10:05:10;;;;;;;42.08;19.02;;;;;;;;;;7369824;19;20078;-76
2023/12/07 10:07:37;;;;;;;45.28;19.67;;;;;;;;;;7368469;19;20626;-76
2023/12/07 10:10:04;;;;;;;42.80;20.10;;;;;;;;;;7367015;19;20003;-76
2023/12/07 10:12:30;;;;;;;49.95;18.52;;;;;;;;;;7389689;19;20002;-75
2023/12/07 10:14:56;;;;;;;44.15;20.35;;;;;;;;;;7365230;19;20007;-76
2023/12/07 10:17:21;;;;;;;44.08;18.38;;;;;;;;;;7364310;19;20010;-76
2023/12/07 10:20:08;;;;;;;42.50;18.77;;;;;;;;;;7367094;19;20019;-77
2023/12/07 10:22:33;;;;;;;52.03;19.42;;;;;;;;;;7366803;19;20019;-77
2023/12/07 10:24:59;;;;;;;51.67;21.67;;;;;;;;;;7366846;19;20006;-75
2023/12/07 10:27:25;;;;;;;56.25;20.80;;;;;;;;;;7388038;19;20005;-75
2023/12/07 10:29:50;;;;;;;58.80;21.70;;;;;;;;;;7367699;19;19999;-75
2023/12/07 10:32:16;;;;;;;52.78;20.98;;;;;;;;;;7366274;19;20034;-74
2023/12/07 10:34:41;;;;;;;45.97;21.25;;;;;;;;;;7366477;19;20070;-75
2023/12/07 10:37:06;;;;;;;50.67;20.85;;;;;;;;;;7367524;19;20022;-75
2023/12/07 10:39:32;;;;;;;58.80;21.85;;;;;;;;;;7388851;19;20009;-77
2023/12/07 10:42:02;;;;;;;54.47;20.48;;;;;;;;;;7366937;19;20030;-77
2023/12/07 10:44:28;;;;;;;55.35;21.95;;;;;;;;;;7366056;19;20097;-75
2023/12/07 10:46:54;;;;;;;52.25;20.95;;;;;;;;;;7366418;19;20010;-78
2023/12/07 10:49:23;;;;;;;46.90;21.05;;;;;;;;;;7367375;19;20114;-75
2023/12/07 10:51:53;;;;;;;53.53;22.13;;;;;;;;;;7367161;19;20087;-75
2023/12/07 10:54:23;;;;;;;59.63;23.55;;;;;;;;;;7385949;19;20654;-75
2023/12/07 10:56:50;;;;;;;58.80;22.92;;;;;;;;;;7366387;19;20051;-75
2023/12/07 10:59:16;;;;;;;56.35;21.38;;;;;;;;;;7365242;19;20010;-76
2023/12/07 11:01:43;;;;;;;61.10;22.25;;;;;;;;;;7366010;19;20002;-76
2023/12/07 11:04:12;;;;;;;60.22;22.65;;;;;;;;;;7366390;19;20034;-75
2023/12/07 11:06:39;;;;;;;61.30;23.17;;;;;;;;;;7388082;19;20006;-75
2023/12/07 11:09:08;;;;;;;62.22;24.05;;;;;;;;;;7366935;19;20006;-75
2023/12/07 11:11:36;;;;;;;50.70;22.35;;;;;;;;;;7376622;19;20002;-76
2023/12/07 11:14:06;;;;;;;56.25;21.17;;;;;;;;;;7369816;19;20383;-75
2023/12/07 11:16:36;;;;;;;56.13;20.90;;;;;;;;;;7362812;19;20142;-75
2023/12/07 11:19:04;;;;;;;49.28;20.13;;;;;;;;;;7361543;19;20012;-76
2023/12/07 11:21:30;;;;;;;45.38;20.50;;;;;;;;;;7386397;19;20047;-75
2023/12/07 11:23:59;;;;;;;58.13;21.73;;;;;;;;;;7362464;19;20034;-76
2023/12/07 11:26:25;;;;;;;66.22;21.60;;;;;;;;;;7364974;19;19994;-75
2023/12/07 11:28:50;;;;;;;52.50;20.67;;;;;;;;;;7365584;19;20042;-74
2023/12/07 11:31:16;;;;;;;51.60;21.83;;;;;;;;;;7365146;19;20002;-75
2023/12/07 11:33:42;;;;;;;59.95;22.58;;;;;;;;;;7380030;19;20011;-76
2023/12/07 11:36:09;;;;;;;72.63;24.30;;;;;;;;;;7376961;19;20006;-76
2023/12/07 11:38:58;;;;;;;65.70;21.85;;;;;;;;;;7363336;19;20009;-76
2023/12/07 11:41:24;;;;;;;83.45;23.25;;;;;;;;;;7364813;19;20602;-74
2023/12/07 11:43:53;;;;;;;78.35;23.77;;;;;;;;;;7364394;19;20010;-74
2023/12/07 11:46:19;;;;;;;83.38;22.25;;;;;;;;;;7365683;19;20057;-75
2023/12/07 11:48:49;;;;;;;90.53;23.50;;;;;;;;;;7364596;19;20014;-76
2023/12/07 11:51:16;;;;;;;77.43;22.92;;;;;;;;;;7388961;19;20026;-76
2023/12/07 11:53:42;;;;;;;69.57;22.55;;;;;;;;;;7374098;19;20016;-75
2023/12/07 11:56:09;;;;;;;77.07;23.77;;;;;;;;;;7374807;19;20027;-75
2023/12/07 11:58:36;;;;;;;63.53;22.15;;;;;;;;;;7373554;19;20443;-75
2023/12/07 12:01:02;;;;;;;67.63;22.77;;;;;;;;;;7371094;19;20006;-74
2023/12/07 12:03:29;;;;;;;74.40;22.20;;;;;;;;;;7390139;19;20006;-74
2023/12/07 12:05:55;;;;;;;76.97;23.30;;;;;;;;;;7360226;19;20002;-76
2023/12/07 12:08:21;;;;;;;78.80;23.80;;;;;;;;;;7367523;19;19998;-75
2023/12/07 12:10:49;;;;;;;68.40;22.42;;;;;;;;;;7368348;19;20010;-76
2023/12/07 12:13:15;;;;;;;72.93;22.25;;;;;;;;;;7368072;19;20014;-75
2023/12/07 12:15:41;;;;;;;73.32;23.73;;;;;;;;;;7394270;19;20010;-75
2023/12/07 12:18:07;;;;;;;95.35;34.47;;;;;;;;;;7370758;19;20006;-75
2023/12/07 12:20:33;;;;;;;70.40;26.00;;;;;;;;;;7369752;19;20025;-74
2023/12/07 12:23:00;;;;;;;64.85;21.83;;;;;;;;;;7363374;19;20082;-74
2023/12/07 12:25:30;;;;;;;71.13;24.17;;;;;;;;;;7363636;19;20015;-74
2023/12/07 12:27:57;;;;;;;73.47;26.08;;;;;;;;;;7364446;19;20006;-75
2023/12/07 12:30:23;;;;;;;103.88;35.13;;;;;;;;;;7383645;19;20439;-73
2023/12/07 12:32:50;;;;;;;103.78;36.20;;;;;;;;;;7372381;19;20006;-73
2023/12/07 12:35:16;;;;;;;82.32;26.65;;;;;;;;;;7370686;19;20009;-73
2023/12/07 12:37:43;;;;;;;73.05;24.70;;;;;;;;;;7367191;19;20038;-75
2023/12/07 12:40:10;;;;;;;76.03;22.83;;;;;;;;;;7371803;19;20002;-74
2023/12/07 12:42:37;;;;;;;71.32;20.98;;;;;;;;;;7392046;19;20326;-73
2023/12/07 12:45:08;;;;;;;74.88;21.80;;;;;;;;;;7371181;19;20009;-74
2023/12/07 12:47:34;;;;;;;59.88;18.35;;;;;;;;;;7370340;19;20033;-74
2023/12/07 12:50:01;;;;;;;65.03;19.60;;;;;;;;;;7369604;19;20007;-74
2023/12/07 12:52:28;;;;;;;65.85;21.35;;;;;;;;;;7368281;19;20023;-74
2023/12/07 12:54:56;;;;;;;73.85;21.95;;;;;;;;;;7370279;19;20005;-73
2023/12/07 12:57:21;;;;;;;76.53;21.45;;;;;;;;;;7390647;19;20079;-72
2023/12/07 12:59:48;;;;;;;74.05;21.60;;;;;;;;;;7370256;19;20058;-74
2023/12/07 13:02:13;;;;;;;74.53;21.60;;;;;;;;;;7370549;19;20042;-73
2023/12/07 13:04:40;;;;;;;69.15;20.30;;;;;;;;;;7369813;19;20003;-73
2023/12/07 13:07:05;;;;;;;79.43;22.65;;;;;;;;;;7368307;19;20139;-73
2023/12/07 13:09:30;;;;;;;76.15;22.02;;;;;;;;;;7389132;19;20803;-72
2023/12/07 13:11:57;;;;;;;89.30;24.08;;;;;;;;;;7369542;19;20092;-73
2023/12/07 13:14:22;;;;;;;61.78;20.10;;;;;;;;;;7370797;19;20007;-72
2023/12/07 13:16:48;;;;;;;55.00;17.98;;;;;;;;;;7368046;19;20133;-73
2023/12/07 13:19:13;;;;;;;56.35;19.55;;;;;;;;;;7367330;19;20081;-73
2023/12/07 13:21:38;;;;;;;73.38;20.77;;;;;;;;;;7390068;19;20468;-73
2023/12/07 13:24:05;;;;;;;63.78;19.85;;;;;;;;;;7366961;19;20014;-73
2023/12/07 13:26:31;;;;;;;55.30;18.63;;;;;;;;;;7366507;19;19998;-73
2023/12/07 13:28:56;;;;;;;53.72;19.27;;;;;;;;;;7368813;19;20023;-74
2023/12/07 13:31:22;;;;;;;61.33;19.45;;;;;;;;;;7368500;19;20006;-73
2023/12/07 13:33:47;;;;;;;48.60;18.52;;;;;;;;;;7366778;19;20324;-73
2023/12/07 13:36:13;;;;;;;65.72;20.55;;;;;;;;;;7388544;19;20536;-72
2023/12/07 13:38:40;;;;;;;58.10;19.73;;;;;;;;;;7368359;19;20320;-73
2023/12/07 13:41:06;;;;;;;62.45;20.45;;;;;;;;;;7366764;19;20480;-74
2023/12/07 13:43:33;;;;;;;59.08;21.95;;;;;;;;;;7365543;19;20007;-74
2023/12/07 13:45:59;;;;;;;66.28;22.30;;;;;;;;;;7366047;19;20003;-73
2023/12/07 13:48:24;;;;;;;62.53;22.55;;;;;;;;;;7388441;19;20672;-73
2023/12/07 13:50:50;;;;;;;49.33;17.17;;;;;;;;;;7363775;19;19999;-73
2023/12/07 13:53:15;;;;;;;48.97;17.95;;;;;;;;;;7364300;19;20377;-72
2023/12/07 13:55:40;;;;;;;58.97;19.02;;;;;;;;;;7371318;19;20006;-73
2023/12/07 13:58:09;;;;;;;59.28;20.17;;;;;;;;;;7368785;19;20034;-73
2023/12/07 14:00:36;;;;;;;49.03;17.33;;;;;;;;;;7388205;19;20009;-73
2023/12/07 14:03:01;;;;;;;55.05;21.23;;;;;;;;;;7363820;19;20028;-73
2023/12/07 14:05:27;;;;;;;52.15;19.33;;;;;;;;;;7365925;19;20035;-75
2023/12/07 14:07:52;;;;;;;47.83;19.15;;;;;;;;;;7368654;19;20358;-73
2023/12/07 14:10:18;;;;;;;48.30;19.20;;;;;;;;;;7370214;19;20065;-74
2023/12/07 14:12:43;;;;;;;43.58;18.60;;;;;;;;;;7375136;19;20334;-75